x

8557380 - Lewes, De (lwsd1) Weather Station

1:30pm - Wed 4th Mar 2015 All times are EST. -5 hours from GMT.

  • Wind
    8mph, 14mph gusts
  • Sea Temp 31°f
  • Air Temp 50°f
  • Sea Pressure 1011.7mb
  • 8557380 - Lewes, De
  • 8557380 - Lewes, De

More Historic Weather Station data

Upgrade to MSW Pro to gain access to the past 30 days of data for over 8000 Wavebouys and Weather Stations around the globe.

Join Pro

Comparision Forecast

View Surf forecast
   
Wed 03/04 1:30pm 8 14 mph 1011.7mb 31f 50f
1:24pm 6 10 mph 1011.8mb 31f 50f
1:18pm 6 9 mph 1011.9mb 31f 50f
1:12pm 8 11 mph 1012.2mb 31f 50f
1:06pm 7 10 mph 1012.1mb 31f 50f
1:00pm 6 9 mph 1012.2mb 31f 49f
12:54pm 7 10 mph 1012.5mb 31f 49f
12:48pm 8 13 mph 1012.7mb 31f 49f
12:42pm 6 10 mph 1012.8mb 31f 49f
12:36pm 5 8 mph 1012.7mb 31f 49f
12:30pm 5 9 mph 1012.7mb 31f 49f
12:24pm 6 10 mph 1012.8mb 31f 49f
12:18pm 9 13 mph 1013mb 31f -
12:12pm 9 13 mph 1013mb 31f -
12:06pm 7 10 mph 1012.9mb 31f -
12:00pm 7 13 mph 1013mb 31f 49f
11:54am 9 15 mph 1013.2mb 31f 49f
11:48am 7 9 mph 1013.2mb 31f 49f
11:42am 6 9 mph 1013.1mb 31f 49f
11:36am 6 7 mph 1013.1mb 31f 49f
11:30am 5 8 mph 1013.2mb 31f 49f
11:24am 8 10 mph 1013.3mb 31f 49f
11:18am 7 13 mph 1013.1mb 31f 49f
11:12am 6 10 mph 1013.3mb 31f 49f
11:06am 8 10 mph 1013.2mb 31f 49f
11:00am 8 11 mph 1013.4mb 31f 49f
10:54am 10 14 mph 1013.4mb 31f 49f
10:48am 10 16 mph 1013.5mb 31f 49f
10:42am 7 11 mph 1013.4mb 31f 49f
10:36am 8 13 mph 1013.9mb 31f 49f
10:30am 8 13 mph 1014.1mb 31f 49f
10:24am 9 13 mph 1013.9mb 31f 48f
10:18am 10 14 mph 1014mb 31f 47f
10:12am 10 17 mph 1014.4mb 31f 47f
10:06am 10 15 mph 1014.4mb 31f 47f
10:00am 10 13 mph 1014.3mb 31f 47f
9:54am 10 13 mph 1014.3mb 31f 46f
9:48am 10 14 mph 1014.2mb 31f 46f
9:42am 5 8 mph 1013.9mb 31f 43f
9:36am 5 7 mph 1013.5mb 31f 44f
9:30am 6 8 mph 1013.3mb 31f 46f
9:24am 6 7 mph 1013mb 30f 46f
9:18am 6 7 mph 1012.7mb 30f 46f
9:12am 7 10 mph 1012.8mb 30f 46f
9:06am 5 8 mph 1012.9mb 30f 46f
9:00am 7 14 mph 1013mb 30f 46f
8:54am 6 13 mph 1013mb 30f 46f
8:48am 10 17 mph 1013.3mb 30f 46f
8:42am 10 14 mph 1013.2mb 30f 46f
8:36am 8 14 mph 1013mb 30f 45f
8:30am 11 15 mph 1012.8mb 30f 46f
8:24am 10 15 mph 1013mb 30f 45f
8:18am 10 16 mph 1013.2mb 30f 45f
8:12am 10 14 mph 1012.9mb 30f 45f
8:06am 9 13 mph 1012.3mb 30f 45f
8:00am 9 14 mph 1012.3mb 30f 45f
7:54am 9 17 mph 1012.3mb 30f 45f
7:48am 10 15 mph 1012.2mb 30f 44f
7:42am 10 16 mph 1012.1mb 30f 44f
7:36am 10 15 mph 1011.9mb 30f 44f
7:30am 11 15 mph 1011.4mb 30f 44f
7:24am 10 17 mph 1011.7mb 30f 44f
7:18am 10 14 mph 1011.5mb 30f 44f
7:12am 13 17 mph 1011.8mb 30f 44f
7:06am 11 18 mph 1011.7mb 30f 44f
7:00am 14 21 mph 1011.5mb 30f 44f
6:54am 11 16 mph 1011.3mb 30f 44f
6:48am 13 18 mph 1011.3mb 30f 44f
6:42am 13 21 mph 1011.3mb 30f 43f
6:36am 11 17 mph 1011mb 30f 43f
6:30am 14 20 mph 1010.9mb 30f 43f
6:24am 13 18 mph 1010.7mb 30f 43f
6:18am 14 21 mph 1010.7mb 30f 43f
6:12am 15 22 mph 1010.8mb 30f 43f
6:06am 14 21 mph 1010.8mb 30f 43f
6:00am 16 21 mph 1010.8mb 30f 43f
5:54am 14 21 mph 1010.6mb 30f 43f
5:48am 13 17 mph 1010.6mb 30f 42f
5:42am 13 20 mph 1010.8mb 30f 42f
5:36am 11 18 mph 1011mb 30f 42f
5:30am 14 20 mph 1011.3mb 30f 42f
5:24am 11 16 mph 1011.1mb 30f 42f
5:18am 10 16 mph 1011.3mb 30f 42f
5:12am 10 11 mph 1011.2mb 30f 41f
5:06am 11 14 mph 1011mb 30f 42f
5:00am 13 15 mph 1011.3mb 30f 42f
4:54am 14 16 mph 1011.4mb 30f 43f
4:48am 11 15 mph 1011mb 30f 42f
4:42am 10 15 mph 1011mb 30f 43f
4:36am 11 15 mph 1010.7mb 30f 43f
4:30am 14 17 mph 1010.7mb 30f 44f
4:24am 15 22 mph 1010.3mb 30f 44f
4:18am 20 25 mph 1010.5mb 30f 44f
4:12am 18 25 mph 1010.4mb 30f 44f
4:06am 17 22 mph 1010.2mb 30f 45f
4:00am 20 28 mph 1010.1mb 30f 45f
3:54am 13 21 mph 1009.1mb 30f 45f
3:48am 17 24 mph 1009.1mb 30f 45f
3:42am 16 23 mph 1009.2mb 30f 45f
3:36am 18 23 mph 1009.2mb 30f 46f
3:30am 15 21 mph 1009.2mb 30f 46f
3:24am 16 22 mph 1009.1mb 30f 46f
3:18am 17 26 mph 1009.1mb 30f 46f
3:12am 16 25 mph 1009.1mb 30f 46f
3:06am 14 22 mph 1009mb 30f 46f
3:00am 15 22 mph 1009mb 30f 46f
2:54am 14 21 mph 1009mb 30f 46f
2:48am 13 23 mph 1009mb 30f 46f
2:42am 14 22 mph 1008.8mb 30f 46f
2:36am 15 28 mph 1008.8mb 30f 45f
2:30am 11 23 mph 1009mb 30f 45f
2:24am 17 26 mph 1008.8mb 30f 45f
2:18am 18 30 mph 1009.2mb 30f 45f
2:12am 18 30 mph 1009.5mb 30f 45f
2:06am 15 28 mph 1009.7mb 30f 44f
2:00am 18 28 mph 1009.8mb 30f 44f
1:54am 14 21 mph 1009.8mb 30f 44f
1:48am 15 25 mph 1010mb 30f 43f
1:42am 17 29 mph 1010.3mb 30f 43f
1:36am 17 25 mph 1010.1mb 30f 42f
1:30am 15 23 mph 1010.4mb 30f 41f
1:24am 14 24 mph 1010.7mb 30f 41f
1:18am 14 23 mph 1011mb 30f 40f
1:12am 14 21 mph 1011.2mb 30f 40f
1:06am 9 16 mph 1011.2mb 30f 39f
1:00am 11 18 mph 1011.5mb 30f 39f
12:54am 10 17 mph 1011.8mb 30f 39f
12:48am 10 16 mph 1012mb 30f 39f
12:42am 8 15 mph 1012.2mb 30f 38f
12:36am 9 14 mph 1012.3mb 30f 38f
12:30am 13 20 mph 1012.5mb 30f 38f
12:24am 13 18 mph 1012.4mb 30f 38f
12:18am 13 17 mph 1012.6mb 30f 38f
12:12am 10 16 mph 1012.6mb 30f 38f
12:06am 10 18 mph 1012.8mb 30f 38f
12:00am 10 14 mph 1013mb 30f 38f
Tue 03/03 11:54pm 11 21 mph 1013mb 30f 38f
11:48pm 13 18 mph 1012.9mb 30f 38f
11:42pm 13 18 mph 1013.2mb 30f 38f
11:36pm 13 17 mph 1013.5mb 30f 38f
11:30pm 10 18 mph 1013.6mb 30f 38f
11:24pm 10 18 mph 1013.5mb 30f 38f
11:18pm 10 15 mph 1013.8mb 30f 38f
11:12pm 10 20 mph 1013.8mb 30f 38f
11:06pm 13 22 mph 1013.7mb 30f 38f
11:00pm 13 22 mph 1013.9mb 30f 38f
10:54pm 10 20 mph 1013.8mb 30f 37f
10:48pm 11 17 mph 1013.9mb 30f 37f
10:42pm 9 21 mph 1013.9mb 30f 37f
10:36pm 10 17 mph 1014mb 30f 36f
10:30pm 10 17 mph 1014mb 30f 36f
10:24pm 9 14 mph 1014.4mb 30f 35f
10:18pm 7 11 mph 1014.5mb 30f 35f
10:12pm 7 10 mph 1014.6mb 30f 35f
10:06pm 8 14 mph 1015.2mb 30f 35f
10:00pm 9 13 mph 1015.1mb 30f 35f
9:54pm 7 11 mph 1015.1mb 30f 35f
9:48pm 7 10 mph 1015.2mb 30f 34f
9:42pm 6 10 mph 1015.2mb 30f 34f
9:36pm 8 13 mph 1015.3mb 30f 34f
9:30pm 8 11 mph 1015.4mb 30f 34f
9:24pm 7 11 mph 1015.6mb 30f 34f
9:18pm 6 10 mph 1015.7mb 30f 33f
9:12pm 5 7 mph 1016mb 30f 33f
9:06pm 6 7 mph 1016.3mb 30f 33f
9:00pm 5 6 mph 1016.7mb 30f 33f
8:54pm 5 6 mph 1016.8mb 30f 33f
8:48pm 3 5 mph 1016.9mb 30f 33f
8:42pm 3 5 mph 1017mb 30f 33f
8:36pm 6 7 mph 1017.3mb 30f 33f
8:30pm 5 7 mph 1017.5mb 30f 33f
8:24pm 3 5 mph 1017.2mb 30f 33f
8:18pm 2 3 mph 1017.1mb 30f 33f
8:12pm 2
mph
1017.3mb 30f 33f
8:06pm 3 5 mph 1017.6mb 30f 33f
8:00pm 3 5 mph 1017.9mb 30f 33f
7:54pm 3 5 mph 1018mb 30f 33f
7:48pm 2 3 mph 1018mb 30f 33f
7:42pm 3
mph
1018.2mb 30f 33f
7:36pm 2 3 mph 1018.4mb 30f 33f
7:30pm 2 3 mph 1018.6mb 30f 33f
7:24pm 3 5 mph 1018.8mb 30f 33f
7:18pm 3 5 mph 1019mb 30f 33f
7:12pm 1 2 mph 1018.8mb 30f 33f
7:06pm 2 5 mph 1018.8mb 30f 33f
7:00pm 2 5 mph 1018.7mb 30f 33f
6:54pm 3 5 mph 1018.7mb 30f 33f
6:48pm 3 5 mph 1018.8mb 30f 33f
6:42pm 3 6 mph 1019mb 30f 33f
6:36pm 2 3 mph 1019.4mb 30f 33f
6:30pm 1 2 mph 1019.6mb 30f 32f
6:24pm 2
mph
1019.6mb 30f 32f
6:18pm 2 3 mph 1019.8mb 30f 32f
6:12pm 2
mph
1020mb 30f 32f
6:06pm 2 3 mph 1020.4mb 30f 32f
6:00pm 1 2 mph 1020.6mb 30f 32f
5:54pm 2 3 mph 1020.5mb 30f 32f
5:48pm 1 2 mph 1020.6mb 30f 32f
5:42pm 2 5 mph 1020.6mb 30f 32f
5:36pm 2 3 mph 1020.6mb 30f 32f
5:30pm 3 6 mph 1020.6mb 30f 32f
5:24pm 5 6 mph 1020.6mb 30f 32f
5:18pm 5 6 mph 1020.7mb 30f 32f
5:12pm 5 6 mph 1021mb 30f 32f
5:06pm 2 3 mph 1021.2mb 30f 32f
5:00pm 2
mph
1021.6mb 30f 32f
4:54pm 2 5 mph 1021.7mb 30f 32f
4:48pm 2 5 mph 1021.6mb 30f 32f
4:42pm 3 5 mph 1021.7mb 30f 32f
4:36pm 3 5 mph 1022mb 30f 32f
4:30pm 3
mph
1022.2mb 30f 32f
4:24pm 1 2 mph 1022.6mb 30f 32f
4:18pm 3
mph
1022.5mb 30f 31f
4:12pm 3 5 mph 1022.6mb 30f 31f
4:06pm 2 3 mph 1022.8mb 30f 31f
4:00pm 3 5 mph 1022.9mb 30f 31f
3:54pm 2 3 mph 1023mb 30f 31f
3:48pm 3 6 mph 1023.1mb 30f 31f
3:42pm 5 6 mph 1023.1mb 30f 31f
3:36pm 5 6 mph 1023.4mb 30f 32f
3:30pm 5 7 mph 1023.5mb 30f 31f
3:24pm 5
mph
1024mb 30f 31f
3:18pm 3 5 mph 1024.3mb 30f 31f
3:12pm 2 3 mph 1024.4mb 30f 32f
3:06pm 2 3 mph 1024.5mb 30f 32f
3:00pm 2 3 mph 1024.6mb 30f 31f
2:54pm 3 5 mph 1024.5mb 30f 31f
2:48pm 5 6 mph 1024.8mb 30f 31f
2:42pm 5 6 mph 1024.7mb 30f 31f
2:36pm 6 7 mph 1024.7mb 30f 31f
2:30pm 6 8 mph 1024.9mb 30f 31f
2:24pm 3 5 mph 1025mb 30f 32f
2:18pm 3 6 mph 1025.3mb 30f 32f
2:12pm 7 8 mph 1025.5mb 30f 32f
2:06pm 7
mph
1025.5mb 30f 32f
2:00pm 3 6 mph 1025.8mb 30f 32f
1:54pm 6 7 mph 1025.7mb 30f 32f
1:48pm 6 7 mph 1025.7mb 30f 32f
1:42pm 6 8 mph 1025.8mb 30f 32f
1:36pm 3 6 mph 1026mb 30f 32f
1:30pm 7 9 mph 1026.3mb 30f 32f
1:24pm 7 9 mph 1026.5mb 30f 32f
1:18pm 6 9 mph 1026.8mb 30f 32f
1:12pm 8 13 mph 1027.1mb 30f 32f
1:06pm 6 8 mph 1027.4mb 30f 32f
1:00pm 6 8 mph 1027.5mb 30f 32f
12:54pm 5 7 mph 1027.9mb 30f 33f
12:48pm 5 7 mph 1028mb 30f 32f
12:42pm 7 8 mph 1028.3mb 30f 32f
12:36pm 7 13 mph 1028.3mb 30f 33f
12:30pm 7 9 mph 1028.6mb 30f 33f
12:24pm 7 10 mph 1028.8mb 30f 32f
12:18pm 5 8 mph 1029mb 30f 31f
12:12pm 6 7 mph 1029.2mb 30f 31f
12:06pm 8 10 mph 1029.1mb 30f 31f
12:00pm 7 8 mph 1029.2mb 30f 30f
11:54am 7 10 mph 1029.5mb 30f 31f
11:48am 9 11 mph 1029.7mb - -
11:42am 8 9 mph 1029.6mb 30f 30f
11:36am 7 10 mph 1029.9mb 30f 31f
11:30am 7 8 mph 1029.9mb 30f -
11:24am 7 9 mph 1030.3mb 30f -
11:18am 7 8 mph - - 30f
11:12am 6 9 mph - - 30f
11:06am 7 9 mph - - 30f
11:00am  -  mph 1030.3mb 30f 30f
10:54am  -  mph 1030.6mb 30f 30f
10:48am 5 7 mph - 30f 30f
10:42am 7 10 mph - 30f 29f
10:36am 7 9 mph - 30f 29f
10:30am 6 7 mph - 30f 29f
10:24am 7 8 mph - 30f 29f
10:18am  -  mph 1030.8mb 30f 29f
10:12am  -  mph 1031mb 30f 29f
10:06am  -  mph 1031.1mb 30f 29f
10:00am 9 10 mph - - 29f
9:54am 8 9 mph - - 29f
9:48am 8 9 mph - - -
9:42am 5 7 mph - - -
9:36am 5 6 mph - - -
9:30am  -  mph - - 29f
9:24am  -  mph - - 29f
9:18am 8
mph
- 30f -
9:12am 7 10 mph - 30f -
9:06am 9 10 mph - 30f -
9:00am  -  mph 1031.6mb - 28f
8:54am  -  mph 1031.6mb - 28f
8:48am 7 8 mph - - 28f
8:42am 7 8 mph - - 28f
8:36am 7 9 mph - - 28f
8:30am  -  mph - 30f -
8:24am  -  mph - 30f -
8:18am 10 13 mph 1031.4mb - 28f
8:12am 11 13 mph 1031.1mb - 28f
8:06am 13 15 mph 1030.9mb - 28f
8:00am 13 15 mph - 30f -
7:54am 13 15 mph - 30f -
7:48am 14 16 mph - 30f -
7:42am  -  mph 1031mb 30f -
7:36am  -  mph 1030.8mb 30f -
7:30am  -  mph 1030.8mb - 28f
7:24am  -  mph 1030.6mb - 28f
7:18am  -  mph 1030.8mb - 28f
7:12am  -  mph 1030.7mb - 28f
7:06am  -  mph 1030.7mb - 28f
7:00am 11 15 mph 1030.6mb 30f 28f
6:54am 13 15 mph 1030.6mb 30f 28f
6:48am 13 15 mph - 30f -
6:42am 13 15 mph - 30f -
6:36am 11 15 mph - 30f -
6:30am 13 15 mph 1030.5mb 30f -
6:24am 11 14 mph 1030.6mb 30f -
6:18am  -  mph 1030.7mb 30f 28f
6:12am  -  mph 1031mb 30f 28f
6:06am  -  mph 1030.8mb 30f 28f
6:00am  -  mph 1030.5mb 30f 28f
5:54am  -  mph 1030.2mb 30f 28f
5:48am  -  mph 1030.3mb 30f 29f
5:42am 10 13 mph - - -
5:36am 13 16 mph - - -
5:30am  -  mph 1030.5mb 30f -
5:24am  -  mph 1030.8mb 30f -
5:18am 13 15 mph - 30f 29f
5:12am 13 14 mph - 30f 29f
5:06am 11 13 mph - 30f 29f
5:00am 11 14 mph 1030.5mb 30f -
4:54am 11 15 mph 1030.3mb 30f -
4:48am  -  mph 1030.3mb 30f -
4:42am  -  mph 1030.3mb 30f -
4:36am  -  mph 1030mb 30f -
4:30am 8 10 mph 1029.8mb - 30f
4:24am 9 13 mph 1029.8mb - 30f
4:18am  -  mph - - 30f
4:12am  -  mph - - 30f
4:06am  -  mph - - 30f
4:00am  -  mph 1029.5mb 30f 30f
3:54am  -  mph 1029.2mb 30f 30f
3:48am  -  mph 1029.4mb 30f 30f
3:42am 8 10 mph 1029.4mb - 30f
3:36am 10 13 mph 1029.1mb - 30f
3:30am 9 11 mph 1029.4mb - 30f
3:24am 9 11 mph 1029.2mb - 30f
3:18am  -  mph - 30f 30f
3:12am  -  mph - 30f 30f
3:06am  -  mph - 30f 30f
3:00am 10 13 mph 1029.2mb - 30f
2:54am 13 15 mph 1028.8mb - 30f
2:48am 11 14 mph 1028.9mb 30f 30f
2:42am 10 13 mph 1029.2mb 30f 30f
2:36am 13 15 mph 1029mb 30f 31f
2:30am 11 15 mph 1029.1mb - 31f
2:24am 10 11 mph 1029.4mb - 31f
2:18am  -  mph - - 31f
2:12am  -  mph - - 31f
2:06am  -  mph - - 31f
2:00am 13 15 mph - - -
1:54am 14 16 mph - - -
1:48am 13 14 mph 1029.7mb - 31f
1:42am 13 15 mph 1029.8mb - 31f
1:36am 13 16 mph 1029.7mb - 31f
1:30am 14 16 mph 1029.9mb - 31f
1:24am 14 17 mph 1030mb - 31f
1:18am 15 18 mph - - 31f
1:12am 16 20 mph - - 31f
1:06am 14 16 mph - - 31f
1:00am  -  mph - 30f 31f
12:54am  -  mph - 30f 31f
12:48am  -  mph - 30f 31f
12:42am  -  mph - 30f 31f
12:36am  -  mph - 30f 31f
12:30am  -  mph 1029.5mb - -
12:24am  -  mph 1029.5mb - -
12:18am  -  mph 1029.7mb 30f 31f
12:12am  -  mph 1029.6mb 30f 31f
12:06am  -  mph 1029.5mb 30f 31f
12:00am  -  mph 1029.6mb - -
Mon 03/02 11:54pm  -  mph 1029.5mb - -
11:48pm  -  mph - 30f 31f
11:42pm  -  mph - 30f 31f
11:36pm  -  mph - 30f 32f
11:30pm  -  mph 1029.4mb 30f 32f
11:24pm  -  mph 1029.4mb 30f 32f
11:18pm  -  mph 1029.4mb - 32f
11:12pm  -  mph 1029.3mb - 32f
11:06pm  -  mph 1029.3mb - 32f
11:00pm 10 11 mph 1029.4mb 30f 32f
10:54pm 11 14 mph 1029.4mb 30f 33f
10:48pm  -  mph - 30f -
10:42pm  -  mph - 30f -
10:36pm  -  mph - 30f -
10:30pm 9 11 mph 1029.4mb - 32f
10:24pm 8 9 mph 1029.4mb - 31f
10:18pm  -  mph - 30f -
10:12pm  -  mph - 30f -
10:06pm  -  mph - 30f -
10:00pm  -  mph 1029.1mb 30f 33f
9:54pm  -  mph 1029mb 30f 32f
9:48pm 10 11 mph - 30f -
9:42pm 10 11 mph - 30f -
9:36pm 9 13 mph - 30f -
9:30pm  -  mph - 30f -
9:24pm  -  mph - 30f -
9:18pm  -  mph - 30f -
9:12pm  -  mph - 30f -
9:06pm  -  mph - 30f -
9:00pm 8 9 mph 1028.6mb 30f 33f
8:54pm 6 7 mph 1028.5mb 30f 32f
8:48pm  -  mph - 30f 31f
8:42pm  -  mph - 30f 32f
8:36pm  -  mph - 30f 33f
8:30pm  -  mph - 30f 33f
8:24pm  -  mph - 30f 33f
8:18pm  -  mph 1028.1mb 30f 34f
8:12pm  -  mph 1027.9mb 30f 33f
8:06pm  -  mph 1027.7mb 30f 33f
8:00pm 9 11 mph 1027.7mb 30f -
7:54pm 10 13 mph 1027.7mb 30f -
7:48pm 8 10 mph - 30f -
7:42pm 7 8 mph - 30f -
7:36pm 7
mph
- 30f -
7:30pm  -  mph 1027.8mb 30f -
7:24pm  -  mph 1027.7mb 30f -
7:18pm  -  mph 1027.6mb - 32f
7:12pm  -  mph 1027.5mb - 33f
7:06pm  -  mph 1027.5mb - 33f
7:00pm 8 10 mph - 30f -
6:54pm 8 10 mph - 30f -
6:48pm 9 11 mph - 30f -
6:42pm 10 11 mph - 30f -
6:36pm 9 11 mph - 30f -
6:30pm 8 9 mph - 30f 33f
6:24pm 9 10 mph - 30f 33f
6:18pm 10 11 mph 1026.4mb 30f 33f
6:12pm 11 14 mph 1026.2mb 30f 34f
6:06pm 14 16 mph 1026mb 30f 34f
6:00pm 13 15 mph 1026mb 30f 34f
5:54pm 13 15 mph 1026mb 30f 34f
5:48pm 11 14 mph 1025.8mb 30f 34f
5:42pm 15 17 mph 1025.6mb 30f 35f
5:36pm 17 21 mph 1025.5mb 30f 35f
5:30pm 16 20 mph 1025.5mb 30f 35f
5:24pm 17 20 mph 1025.5mb 30f 36f
5:18pm 15 18 mph 1025.5mb 30f 36f
5:12pm 15 20 mph 1025.4mb 30f 36f
5:06pm 17 21 mph 1025.1mb 30f 36f
5:00pm 21 25 mph 1025mb 30f 36f
4:54pm 21 24 mph 1024.9mb 30f 36f
4:48pm 22 26 mph 1024.9mb 30f 36f
4:42pm 17 25 mph 1024.9mb 30f 36f
4:36pm 15 17 mph 1024.9mb 30f 36f
4:30pm 15 18 mph 1024.8mb 30f 36f
4:24pm 14 17 mph 1024.7mb 30f 36f
4:18pm 15 18 mph 1024.7mb 30f 36f
4:12pm 15 18 mph 1024.6mb 30f 36f
4:06pm 15 17 mph 1024.5mb 30f 36f
4:00pm 17 23 mph 1024.3mb 30f 36f
3:54pm 17 21 mph 1024.2mb 30f 36f
3:48pm 20 25 mph 1024.1mb 30f 36f
3:42pm 18 23 mph 1024.2mb 30f 36f
3:36pm 14 17 mph 1024.3mb 30f 35f
3:30pm 17 21 mph 1024.3mb 30f 36f
3:24pm 17 21 mph 1024.3mb 30f 36f
3:18pm 17 21 mph 1024.2mb 30f 36f
3:12pm 18 23 mph 1024mb 30f 36f
3:06pm 13 16 mph 1023.9mb 30f 35f
3:00pm 14 16 mph 1023.9mb 30f 35f
2:54pm 14 17 mph 1023.9mb 30f 35f
2:48pm 16 18 mph 1023.9mb 30f 35f
2:42pm 15 17 mph 1024mb 30f 35f
2:36pm 13 16 mph 1023.9mb 30f 35f
2:30pm 13 16 mph 1023.9mb 30f 35f
2:24pm 13 16 mph 1023.8mb 30f 35f
2:18pm 13 17 mph 1023.7mb 30f 35f
2:12pm 13 15 mph 1023.6mb 30f 35f
2:06pm 16 20 mph 1023.6mb 30f 35f
2:00pm 11 15 mph 1023.5mb 30f 35f
1:54pm 15 18 mph 1023.5mb 30f 35f
1:48pm 16 20 mph 1023.6mb 30f 35f
1:42pm 13 16 mph 1023.7mb 30f 35f
1:36pm 13 16 mph 1023.8mb 30f 35f
1:30pm 14 16 mph 1023.8mb 30f 36f
1:24pm 11 16 mph 1023.8mb 30f 35f
1:18pm 11 15 mph 1023.9mb 30f 35f
1:12pm 15 17 mph 1024mb 30f 36f
1:06pm 15 17 mph 1024mb 30f 36f
1:00pm 16 18 mph 1024mb 30f 37f
12:54pm 14 17 mph 1024mb 30f 37f
12:48pm 13 16 mph 1023.9mb 30f 36f
12:42pm 14 17 mph 1024mb 30f 36f
12:36pm 16 18 mph 1023.9mb 30f 36f
12:30pm 16 18 mph 1023.9mb 30f 36f
12:24pm 15 17 mph 1023.9mb 30f 36f
12:18pm 15 17 mph 1023.9mb 30f 36f
12:12pm 15 18 mph 1024mb 30f 35f
12:06pm 15 18 mph 1023.9mb 30f 35f
12:00pm 15 17 mph 1023.7mb 30f 35f
11:54am 17 20 mph 1023.6mb 30f 35f
11:48am 17 21 mph 1023.5mb 30f 35f
11:42am 18 23 mph 1023.4mb 30f 35f
11:36am 18 22 mph 1023.4mb 30f 35f
11:30am 16 20 mph 1023.4mb 30f 35f
11:24am 15 16 mph 1023.4mb 30f 35f
11:18am 14 17 mph 1023.4mb 30f 35f
11:12am 10 14 mph 1023.4mb 30f 35f
11:06am 10 11 mph 1023.4mb 30f 35f
11:00am 10 11 mph 1023.4mb 30f 34f
10:54am 10 11 mph 1023.4mb 30f 34f
10:48am 10 11 mph 1023.3mb 30f 34f
10:42am 13 14 mph 1023.5mb 30f 34f
10:36am 14 16 mph 1023.4mb 30f 34f
10:30am 17 20 mph 1023.4mb 30f 34f
10:24am 18 22 mph 1023.3mb 30f 34f
10:18am 15 16 mph 1023.2mb 30f 34f
10:12am  -  mph 1022.9mb 30f 35f
10:06am  -  mph 1022.8mb 30f 34f
10:00am  -  mph 1022.6mb 30f 34f
9:54am  -  mph 1022.5mb 30f 33f
9:48am  -  mph 1022.5mb 30f 33f
9:42am  -  mph 1022.2mb 30f 33f
9:36am  -  mph 1022mb 30f 33f
9:30am  -  mph 1022mb 30f 33f
9:24am  -  mph 1021.8mb 30f 33f
9:18am  -  mph 1021.7mb 30f 33f
9:12am  -  mph 1021.7mb 30f 33f
9:06am  -  mph 1021.6mb 30f 33f
9:00am  -  mph 1021.6mb 30f 33f
8:54am  -  mph 1021.4mb 30f 33f
8:48am  -  mph 1021.4mb 30f 32f
8:42am  -  mph 1021.3mb 30f 32f
8:36am  -  mph 1021.3mb 30f 32f
8:30am  -  mph 1021.1mb 30f 32f
8:24am  -  mph 1020.9mb 30f 33f
8:18am  -  mph 1020.7mb 30f 33f
8:12am  -  mph 1020.5mb 30f 33f
8:06am  -  mph 1020.4mb 30f 33f
8:00am  -  mph 1020.4mb 30f 33f
7:54am  -  mph 1020.4mb 30f 33f
7:48am  -  mph 1020.4mb 30f 33f
7:42am  -  mph 1020.4mb 30f 33f
7:36am  -  mph 1020.2mb 30f 33f
7:30am  -  mph 1020mb 30f 33f
7:24am  -  mph 1019.8mb 30f 33f
7:18am  -  mph 1019.8mb 30f 33f
7:12am  -  mph 1019.7mb 30f 33f
7:06am  -  mph 1019.6mb 30f 33f
7:00am  -  mph 1019.4mb 30f 33f
6:54am  -  mph 1019.6mb 30f 33f
6:48am  -  mph 1019.3mb 30f 33f
6:42am  -  mph 1019.2mb 30f 33f
6:36am  -  mph 1019mb 30f 32f
6:30am  -  mph 1019mb 30f 33f
6:24am  -  mph 1019.1mb 30f 33f
6:18am  -  mph 1019.1mb 30f 33f
6:12am  -  mph 1019.3mb 30f 33f
6:06am  -  mph 1019.1mb 30f 33f
6:00am  -  mph 1019mb 30f 33f
5:54am  -  mph 1019mb 30f 32f
5:48am  -  mph 1018.8mb 30f 33f
5:42am  -  mph 1018.6mb 30f 33f
5:36am  -  mph 1018.5mb 30f 33f
5:30am  -  mph 1018.8mb - -
5:24am  -  mph 1019mb 30f 33f
5:18am  -  mph 1019mb 30f 33f
5:12am  -  mph 1019mb 30f 33f
5:06am  -  mph 1018.9mb 30f 32f
5:00am  -  mph 1018.6mb 30f 33f
4:54am  -  mph 1018.6mb 30f 33f
4:48am  -  mph 1018.3mb 30f 33f
4:42am  -  mph 1018.5mb 30f 33f
4:36am  -  mph 1018.4mb 30f 33f
4:30am  -  mph 1018.5mb 30f 33f
4:24am  -  mph 1018.4mb 30f 33f
4:18am  -  mph 1018.3mb 30f 33f
4:12am  -  mph 1018.5mb 30f 33f
4:06am  -  mph 1018.6mb 30f 33f
4:00am  -  mph 1018.7mb 30f 33f
3:54am  -  mph 1018.6mb 30f 33f
3:48am  -  mph 1019mb 30f 33f
3:42am  -  mph 1019.4mb 30f 32f
3:36am  -  mph 1019.5mb 30f 33f
3:30am  -  mph 1019.3mb 30f 33f
3:24am  -  mph 1019.1mb 30f 33f
3:18am  -  mph 1019.1mb 30f 33f
3:12am  -  mph 1019.3mb 30f 33f
3:06am  -  mph 1019.5mb 30f 33f
3:00am  -  mph 1019.7mb 30f 33f
2:54am  -  mph 1019.6mb 30f 33f
2:48am  -  mph 1019.6mb 30f 33f
2:42am  -  mph 1019.8mb 30f 33f
2:36am  -  mph 1020.2mb 30f 33f
2:30am  -  mph 1020.3mb 30f 33f
2:24am  -  mph 1020.2mb 30f 33f
2:18am  -  mph 1020.2mb 30f -
2:12am  -  mph 1020.5mb 30f 32f
2:06am  -  mph 1020.5mb 30f 32f
2:00am  -  mph 1020.8mb 30f 32f
1:54am  -  mph 1020.7mb 30f 32f
1:48am  -  mph 1020.8mb 30f 32f
1:42am  -  mph 1020.9mb 30f 32f
1:36am  -  mph 1020.9mb 30f 32f
1:30am  -  mph 1020.9mb 30f 33f
1:24am  -  mph 1021mb 30f 33f
1:18am  -  mph 1021.1mb 30f 33f
1:12am  -  mph - 30f 33f
1:06am  -  mph - 30f 33f
1:00am  -  mph 1020.7mb 30f 33f
12:54am  -  mph 1020.8mb 30f 33f
12:48am  -  mph 1021mb 30f 33f
12:42am  -  mph 1021.1mb 30f 33f
12:36am  -  mph 1021.2mb 30f 33f
12:30am  -  mph 1021.2mb 30f 33f
12:24am  -  mph 1021.4mb 30f 33f
12:18am  -  mph 1021.5mb 30f 33f
12:12am  -  mph 1021.7mb 30f 33f
12:06am  -  mph 1021.9mb 30f 33f
12:00am  -  mph 1022.2mb 30f 33f
Sun 03/01 11:54pm  -  mph 1022.4mb 30f 32f
11:42pm  -  mph 1022.8mb 30f 32f
11:36pm  -  mph 1022.7mb 30f 32f
11:30pm  -  mph 1022.6mb 30f 32f
11:24pm  -  mph 1022.6mb 30f 31f
11:18pm  -  mph 1022.6mb 30f 31f
11:12pm  -  mph 1023.2mb 30f 31f
11:06pm  -  mph 1023.4mb 30f 31f
11:00pm  -  mph 1023.1mb 30f 31f
10:54pm  -  mph 1023.5mb 30f 31f
10:48pm  -  mph 1023.4mb 30f 31f
10:42pm  -  mph 1023.4mb 30f 31f
10:36pm  -  mph 1023.2mb 30f 31f
10:30pm  -  mph 1023.4mb 30f 31f
10:24pm  -  mph 1023.6mb 30f 31f
10:18pm  -  mph 1023.8mb 30f 31f
10:12pm  -  mph 1024.1mb 30f 31f
10:06pm  -  mph 1024mb 30f 31f
10:00pm  -  mph 1023.7mb 30f 31f
9:54pm  -  mph 1023.9mb 30f 31f
9:48pm  -  mph 1023.9mb 30f 31f
9:42pm  -  mph 1024mb 30f 31f
9:36pm  -  mph 1023.9mb 30f 31f
9:30pm  -  mph 1024.3mb 30f 32f
9:24pm  -  mph 1024.3mb 30f 32f
9:18pm  -  mph - - -
9:12pm  -  mph 1024.7mb 30f 32f
9:06pm  -  mph 1024.8mb 30f 32f
9:00pm  -  mph 1024.8mb 30f 32f
8:54pm  -  mph 1024.9mb 30f 32f
8:48pm  -  mph 1025mb 30f 33f
8:42pm  -  mph 1024.6mb 30f 33f
8:36pm  -  mph 1024.4mb 30f 33f
8:30pm  -  mph 1024.3mb 30f 33f
8:24pm  -  mph 1024.4mb 30f 34f
8:18pm  -  mph 1024.7mb 30f 34f
8:12pm  -  mph 1024.8mb 30f 34f
8:06pm  -  mph 1024.9mb 30f 34f
8:00pm  -  mph 1025mb 30f 34f
7:54pm  -  mph 1024.8mb 30f 34f
7:48pm  -  mph 1024.8mb 30f 34f
7:42pm  -  mph 1025.1mb 30f 33f
7:36pm  -  mph 1025.3mb 30f 34f
7:30pm  -  mph 1025.4mb 30f 34f
7:24pm  -  mph 1025.4mb 30f 34f
7:18pm  -  mph 1025.7mb 30f 34f
7:12pm  -  mph 1025.9mb 30f 34f
7:06pm  -  mph 1026mb 30f 34f
7:00pm  -  mph 1026.2mb 30f 33f
6:54pm  -  mph 1026.4mb 30f 33f
6:48pm  -  mph 1026.4mb 30f 33f
6:42pm  -  mph 1026.6mb 30f 32f
6:36pm  -  mph 1026.8mb 30f 32f
6:30pm  -  mph 1027.4mb 30f 32f
6:24pm  -  mph 1027.5mb 30f 32f
6:18pm  -  mph 1028mb 30f 32f
6:12pm  -  mph 1028.1mb 30f 32f
6:06pm  -  mph 1028mb 30f 31f
6:00pm  -  mph 1027.9mb 30f 31f
5:54pm  -  mph 1027.9mb 30f 31f
5:48pm  -  mph 1027.8mb 30f 30f
5:36pm  -  mph 1028.2mb 30f 30f
5:30pm  -  mph 1028.2mb 30f 29f
5:24pm  -  mph 1028.7mb 30f 29f
5:18pm  -  mph 1028.7mb 30f 29f
5:12pm  -  mph 1028.9mb 30f 29f
5:06pm  -  mph 1029mb 30f 29f
5:00pm  -  mph 1028.9mb 30f 29f
4:54pm  -  mph 1029mb 30f 29f
4:48pm  -  mph 1029.2mb 30f 29f
4:36pm  -  mph 1029.2mb 30f 29f
4:30pm  -  mph 1029.2mb 30f 29f
4:24pm  -  mph 1029.3mb 30f 29f
4:18pm  -  mph 1029.4mb 30f 29f
4:12pm  -  mph 1029.7mb 30f 29f
4:06pm  -  mph 1029.9mb 30f 29f
4:00pm  -  mph 1029.7mb 30f 29f
3:54pm  -  mph 1029.9mb 30f 29f
3:48pm 1 2 mph 1030mb 30f 29f
3:42pm 1 2 mph 1030.1mb 30f 29f
3:36pm 2
mph
1030.3mb 30f 29f
3:30pm 3
mph
1030.4mb 30f 28f
3:24pm 5
mph
1030.6mb 30f 28f
3:18pm 5 6 mph 1030.9mb 30f 28f
3:12pm 5 6 mph 1031.1mb 30f 28f
3:06pm 5
mph
1031.3mb 30f 28f
3:00pm 3 5 mph 1031.2mb 30f 28f
2:54pm 5 6 mph 1031.4mb 30f 28f
2:48pm 3 5 mph 1031.6mb 30f 28f
2:42pm 3 5 mph 1031.7mb 30f 29f
2:36pm 3
mph
1031.9mb 30f 28f
2:30pm 5
mph
1031.9mb 30f 28f
2:24pm 3
mph
1032mb 30f 28f
2:18pm 3
mph
1032.2mb 30f 28f
2:12pm 3 5 mph 1032.3mb 30f 28f
2:06pm 3 5 mph 1032.3mb 30f 28f
2:00pm 2
mph
1032.4mb 30f 28f
1:54pm 2
mph
1032.5mb 30f 28f
1:48pm 1 2 mph 1032.6mb 30f 28f
1:42pm  -  1 mph 1032.6mb 30f 28f
1:36pm 1 2 mph 1032.8mb 30f 28f
1:30pm 2 3 mph 1033mb 30f 28f
1:24pm 2
mph
1033mb 30f 28f
1:18pm 3
mph
1032.9mb 30f 28f
1:12pm 3
mph
1033.1mb 30f 28f
1:06pm 3 5 mph 1033.4mb 30f 28f
1:00pm 3 5 mph 1033.6mb 30f 28f
12:54pm 5 6 mph 1033.7mb 30f 28f
12:48pm 5 6 mph 1033.7mb 30f 28f
12:42pm 5
mph
1033.8mb 30f 28f
12:36pm 5 6 mph 1033.9mb 30f 27f
12:30pm 5
mph
1034.3mb 30f 27f
12:24pm 5 6 mph 1034.5mb 30f 27f
12:18pm 5 6 mph 1034.6mb 30f 27f
12:12pm 6
mph
1034.7mb 30f 27f
12:06pm 5 6 mph 1034.8mb 30f 27f
12:00pm 5 6 mph 1035mb 30f 27f
11:54am 3 5 mph 1035mb 30f 27f
11:48am 3 5 mph 1035.3mb 30f 27f
11:42am 3 5 mph 1035.6mb 30f 27f
11:36am 3
mph
1035.9mb 30f 27f
11:30am 3
mph
1036.2mb 30f 27f
11:24am 3
mph
1036.4mb 30f 27f
11:18am 5
mph
1036.5mb 30f 27f
11:12am 3 5 mph 1036.7mb 30f 27f
11:06am 3 5 mph 1036.8mb 30f 27f
11:00am 5
mph
1036.8mb 30f 27f
10:54am 3
mph
1036.9mb 30f 27f
10:48am 2 3 mph 1036.9mb 30f 27f
10:42am 5 6 mph 1036.7mb 30f 27f
10:36am 6 7 mph 1037mb 30f 27f
10:30am 5 7 mph 1037.3mb 30f 27f
10:24am 3 6 mph 1037.4mb 30f 27f
10:18am 3 5 mph 1037.7mb 30f 27f
10:12am 3 5 mph 1037.7mb 30f 27f
10:06am 2 5 mph 1037.9mb 30f 27f
10:00am 3 6 mph 1038.1mb 30f 28f
9:54am 3 5 mph 1038.2mb 30f 28f
9:48am 1 2 mph 1038.3mb 30f 29f
9:42am  -  1 mph 1038.4mb 30f 29f
9:36am 2 3 mph 1038.3mb 30f 29f
9:30am 3 5 mph 1038.5mb 30f 29f
9:24am 2 3 mph 1038.6mb 30f 29f
9:18am  -  1 mph 1038.6mb 30f 29f
9:12am 1 2 mph 1038.8mb 30f 29f
9:06am  -  1 mph 1039mb 30f 29f
9:00am  -  1 mph 1039mb 30f 29f
8:54am 1
mph
1039mb 30f 28f
8:48am 2
mph
1039.2mb 30f 29f
8:42am  -  1 mph 1039mb 30f 29f
8:36am  -  mph 1038.8mb 30f 29f
8:30am  -  1 mph 1038.7mb 30f 29f
8:24am  -  1 mph 1038.7mb 30f 28f
8:18am  -  mph 1038.8mb 30f 28f
8:12am  -  mph 1038.7mb 30f 28f
8:06am 2
mph
1038.8mb 30f 28f
8:00am  -  2 mph 1038.8mb 30f 28f
7:54am 5 7 mph 1038mb 30f 28f
7:48am 8 9 mph 1037.6mb 30f 27f
7:42am 6
mph
1037.8mb 30f 26f
7:36am 2 3 mph 1038mb 30f 26f
7:30am 2
mph
1038.1mb 30f 26f
7:24am 1 2 mph 1038.3mb 30f 25f
7:18am 2 3 mph 1038.4mb 30f 25f
7:12am 2
mph
1038.4mb 30f 25f
7:06am 3 5 mph 1038.2mb 30f 25f
7:00am 3
mph
1038.2mb 30f 24f
6:54am 2
mph
1038.2mb 30f 24f
6:48am 2 3 mph 1038.3mb 30f 23f
6:42am 2 3 mph 1038.3mb 30f 24f
6:36am 2
mph
1038.4mb 30f 23f
6:30am 1 2 mph 1038.4mb - -
6:24am 1
mph
1038.5mb 30f 23f
6:18am 2
mph
1038.4mb 30f 24f
6:12am 2
mph
1038.5mb 30f 22f
6:06am 2
mph
1038.7mb 30f 23f
6:00am 1 2 mph 1038.7mb 30f 24f
5:54am 1
mph
1038.8mb 30f 23f
5:48am  -  mph 1039mb 30f 23f
5:42am  -  1 mph 1038.9mb 30f 23f
5:36am  -  1 mph 1039mb 30f 22f
5:30am 1 2 mph 1039.4mb 30f 22f
5:24am 2
mph
1039.4mb 30f 22f
5:18am 1 2 mph 1039.5mb 30f 23f
5:12am  -  1 mph 1039.1mb 30f 22f
5:06am 1 2 mph 1039mb 30f 22f
5:00am  -  1 mph 1039.1mb 30f 22f
4:54am  -  mph 1039.2mb 30f 22f
4:48am  -  mph 1039.2mb 30f 22f
4:42am  -  1 mph 1039.2mb 30f 22f
4:36am  -  1 mph 1039mb 30f 22f
4:30am  -  1 mph 1039mb 30f 22f
4:24am  -  1 mph 1039.2mb 30f 22f
4:18am 2
mph
1039.5mb 30f 22f
4:12am 2 3 mph 1039.6mb 30f 20f
4:06am 2 3 mph 1039.5mb 30f 20f
4:00am 3
mph
1039.5mb 30f 20f
3:54am 2
mph
1039.4mb 30f 20f
3:48am 2
mph
1039.5mb 30f 20f
3:42am 1 2 mph 1039.4mb 30f 20f
3:36am 2
mph
1039.4mb 30f 20f
3:30am 2
mph
1039.4mb 30f 20f
3:24am  -  mph 1039.5mb 30f 19f
3:18am 1
mph
1039.5mb 30f 20f
3:12am  -  mph 1039.8mb 30f 20f
3:06am  -  mph 1039.7mb 30f 20f
3:00am  -  mph 1039.6mb 30f 20f
2:48am  -  1 mph 1040.1mb 30f 20f
2:36am 2 3 mph 1040.3mb 30f 20f
2:30am 2
mph
1040.4mb 30f 19f
2:24am 2
mph
1040.4mb 30f 18f
2:18am 1 2 mph 1040.4mb 30f 18f
2:06am 2
mph
1040.5mb 30f 20f
2:00am  -  1 mph 1040.3mb 30f 19f
1:54am  -  1 mph 1040.4mb 30f 19f
1:48am  -  1 mph 1040.5mb 30f 21f
1:42am  -  1 mph 1040.5mb 30f 20f
1:36am  -  2 mph 1040.5mb 30f 22f
1:24am 3 5 mph 1040.6mb 30f 22f
1:18am 5
mph
1040.7mb 30f 22f
1:12am 5 6 mph 1040.7mb 30f 22f
1:06am 3
mph
1040.7mb 30f 21f
1:00am 3 5 mph 1040.8mb 30f 22f
12:54am 3 5 mph 1040.8mb 30f 22f
12:48am 5
mph
1041mb 30f 23f
12:42am 5
mph
1041mb 30f 23f
12:36am 3 5 mph 1040.9mb 30f 23f
12:30am 3 5 mph 1040.9mb 30f 23f
12:24am 3 5 mph 1040.9mb 30f 22f
12:18am 3 5 mph 1041mb 30f 22f
12:12am 5
mph
1041.2mb 30f 22f
12:06am 3 5 mph 1041.2mb 30f 21f
12:00am 5 6 mph 1041.3mb 30f 22f
Sat 02/28 11:54pm 6
mph
1041.4mb 30f 22f
11:48pm 6
mph
1041.4mb 30f 22f
11:42pm 5 6 mph 1041.5mb 30f 21f
11:36pm 5 6 mph 1041.6mb 30f 22f
11:30pm 5
mph
1041.7mb 30f 21f
11:24pm 5 6 mph 1041.8mb 30f 21f
11:18pm 5 6 mph 1042mb 30f 21f
11:12pm 5 6 mph 1042mb 30f 21f
11:06pm 5 6 mph 1042.1mb 30f 21f
11:00pm 5 6 mph 1042.2mb 30f 21f
10:54pm 6
mph
1042.3mb 30f 21f
10:42pm 3
mph
1042.2mb 30f 21f
10:36pm 3
mph
1042.2mb 30f 21f
10:30pm 2 3 mph 1042.3mb 30f 21f
10:24pm 2 3 mph 1042.4mb 30f 21f
10:18pm 3
mph
1042.4mb 30f 20f
10:12pm  -  1 mph 1042.3mb 30f 22f
10:06pm 5
mph
1042.3mb 30f 23f
10:00pm 5
mph
1042.3mb 30f 23f
9:54pm 5
mph
1042.4mb 30f 22f
9:48pm 5
mph
1042.4mb 30f 22f
9:42pm 5 6 mph 1042.4mb 30f 23f
9:36pm 5
mph
1042.4mb 30f 22f
9:30pm 5 6 mph 1042.4mb 30f 22f
9:24pm 3 5 mph 1042.5mb 30f 22f
9:18pm 5
mph
1042.6mb 30f 22f
9:06pm 5
mph
1042.6mb 30f 22f
9:00pm 3 5 mph 1042.7mb 30f 21f
8:48pm 5 6 mph 1042.7mb 30f 22f
8:42pm 5
mph
1042.8mb 30f 22f
8:36pm 5 6 mph 1042.8mb 30f 22f
8:30pm 6
mph
1042.8mb 30f 23f
8:24pm 5 6 mph 1042.6mb 30f 22f
8:18pm 5
mph
1042.7mb 30f 23f
8:12pm 5
mph
1042.6mb 30f 23f
8:06pm 5
mph
1042.5mb 30f 23f
8:00pm 5 6 mph 1042.4mb 30f 23f
7:54pm 2 3 mph 1042.3mb 30f 23f
7:48pm 2 3 mph 1042.2mb 30f 23f
7:42pm 1 2 mph 1042.1mb 30f 24f
7:36pm 2 3 mph 1042.1mb 30f 24f
7:30pm 5
mph
1041.9mb 30f 24f
7:24pm 2
mph
1041.8mb 30f 24f